Time;durP1;ratioP1;P1;durP2;ratioP2;P2;SDS_P1;SDS_P2;PMS_P1;PMS_P2;Temp;Humidity;BMP_temperature;BMP_pressure;BME280_temperature;BME280_humidity;BME280_pressure;Samples;Min_cycle;Max_cycle;Signal;HPM_P1;HPM_P2
2023/06/17 00:00:09;;;;;;;;;22.33;22.33;;;;;26.27;33.53;101063.34;4952440;28;45554;-74
2023/06/17 00:02:35;;;;;;;;;23.67;22.33;;;;;26.18;33.13;101064.75;4955644;28;45385;-76
2023/06/17 00:05:05;;;;;;;;;21.67;19.67;;;;;26.21;33.35;101060.06;4957000;28;45664;-76
2023/06/17 00:07:31;;;;;;;;;22.67;21.67;;;;;26.29;33.45;101080.22;4957244;28;45436;-73
2023/06/17 00:09:57;;;;;;;;;29.33;26.00;;;;;26.23;33.75;101073.41;4957140;28;45503;-80
2023/06/17 00:12:24;;;;;;;;;20.00;19.00;;;;;26.15;33.37;101052.38;4956638;28;45745;-78
2023/06/17 00:14:50;;;;;;;;;24.00;22.33;;;;;26.22;33.67;101075.22;4955881;28;45812;-77
2023/06/17 00:17:17;;;;;;;;;25.00;23.67;;;;;26.19;33.91;101077.22;4954053;28;45392;-76
2023/06/17 00:19:43;;;;;;;;;26.33;21.67;;;;;26.11;33.75;101077.66;4957160;28;45412;-78
2023/06/17 00:22:09;;;;;;;;;27.67;23.67;;;;;26.04;33.81;101064.69;4938841;28;45468;-79
2023/06/17 00:24:35;;;;;;;;;23.67;23.67;;;;;26.06;34.32;101065.47;4969716;28;46455;-79
2023/06/17 00:27:01;;;;;;;;;22.33;21.33;;;;;25.97;33.90;101050.75;4955219;28;45514;-75
2023/06/17 00:29:26;;;;;;;;;23.67;21.67;;;;;26.01;33.82;101065.75;4939736;28;45685;-78
2023/06/17 00:31:52;;;;;;;;;24.00;21.67;;;;;26.04;34.14;101054.81;4957195;28;45386;-78
2023/06/17 00:34:18;;;;;;;;;27.00;23.67;;;;;25.98;34.17;101055.16;4948083;28;46668;-78
2023/06/17 00:36:43;;;;;;;;;23.33;22.00;;;;;25.88;34.42;101059.34;4939093;28;45777;-80
2023/06/17 00:39:09;;;;;;;;;24.33;21.00;;;;;25.84;34.15;101047.88;4936817;28;45385;-79
2023/06/17 00:41:34;;;;;;;;;25.00;22.00;;;;;25.78;34.82;101035.66;4936601;28;45536;-76
2023/06/17 00:44:01;;;;;;;;;22.67;21.67;;;;;25.75;34.54;101038.53;4936604;28;47652;-76
2023/06/17 00:46:37;;;;;;;;;22.67;22.67;;;;;25.87;34.27;101052.25;4940089;28;45338;-78
2023/06/17 00:49:06;;;;;;;;;21.33;21.33;;;;;25.80;34.29;101039.13;4950541;28;45429;-75
2023/06/17 00:51:33;;;;;;;;;24.67;22.33;;;;;25.71;34.32;101031.59;4955130;28;45424;-73
2023/06/17 00:54:00;;;;;;;;;25.67;22.33;;;;;25.66;34.25;101006.88;4955530;28;46608;-69
2023/06/17 00:56:33;;;;;;;;;23.33;21.00;;;;;25.68;34.33;101026.44;4956724;28;45403;-80
2023/06/17 00:59:01;;;;;;;;;21.33;21.33;;;;;25.74;34.85;101025.19;4957436;28;45649;-73
2023/06/17 01:01:29;;;;;;;;;22.00;20.67;;;;;25.65;34.15;101017.66;4953846;28;45568;-75
2023/06/17 01:03:59;;;;;;;;;20.67;18.67;;;;;25.55;34.55;101015.50;4954659;28;46118;-72
2023/06/17 01:06:45;;;;;;;;;23.33;21.00;;;;;25.46;34.57;101010.69;4943182;28;45927;-76
2023/06/17 01:09:16;;;;;;;;;22.00;20.67;;;;;25.45;35.14;101008.09;4936908;28;45483;-78
2023/06/17 01:11:43;;;;;;;;;27.33;26.33;;;;;25.32;34.97;100991.81;4941667;28;45416;-78
2023/06/17 01:14:10;;;;;;;;;24.33;21.33;;;;;25.31;35.23;101006.16;4954791;28;45558;-77
2023/06/17 01:16:43;;;;;;;;;27.00;23.00;;;;;25.23;35.49;101000.38;4954636;28;45469;-79
2023/06/17 01:19:20;;;;;;;;;21.00;21.00;;;;;25.20;35.73;101001.41;4937802;28;45449;-79
2023/06/17 01:21:54;;;;;;;;;20.67;20.67;;;;;25.25;35.69;101004.69;4935728;28;45504;-77
2023/06/17 01:24:33;;;;;;;;;22.67;20.33;;;;;25.24;35.52;100997.59;4933152;28;47023;-77
2023/06/17 01:27:02;;;;;;;;;21.00;20.67;;;;;25.22;35.18;101009.34;4971724;28;45278;-71
2023/06/17 01:29:38;;;;;;;;;20.67;20.00;;;;;25.09;35.57;100993.91;4956353;28;45355;-78
2023/06/17 01:32:06;;;;;;;;;25.00;23.00;;;;;25.10;35.68;100989.41;4954591;28;45483;-73
2023/06/17 01:34:48;;;;;;;;;25.33;23.67;;;;;25.15;35.90;101008.78;4938960;28;45802;-71
2023/06/17 01:37:23;;;;;;;;;26.00;21.33;;;;;25.22;35.27;101012.88;4933209;28;45250;-74
2023/06/17 01:39:51;;;;;;;;;22.33;22.33;;;;;25.22;35.64;101004.84;4934765;28;45792;-77
2023/06/17 01:42:26;;;;;;;;;23.67;20.00;;;;;25.14;35.76;100994.53;4934477;28;45468;-76
2023/06/17 01:44:53;;;;;;;;;20.00;18.33;;;;;25.21;35.98;100997.75;4965285;28;46026;-76
2023/06/17 01:47:19;;;;;;;;;24.67;22.67;;;;;25.17;35.68;100990.81;4965495;28;45621;-78
2023/06/17 01:49:45;;;;;;;;;25.67;22.00;;;;;25.13;35.76;101003.53;4955880;28;45500;-77
2023/06/17 01:52:11;;;;;;;;;24.33;23.33;;;;;25.12;35.80;101001.78;4972069;28;45742;-79
2023/06/17 01:54:37;;;;;;;;;21.67;20.33;;;;;25.10;35.90;100986.72;4953559;28;45510;-76
2023/06/17 01:57:03;;;;;;;;;23.00;20.00;;;;;25.01;36.74;100982.75;4954137;28;45616;-78
2023/06/17 01:59:30;;;;;;;;;24.00;23.67;;;;;25.01;36.49;101000.63;4957018;28;45548;-76
2023/06/17 02:01:55;;;;;;;;;22.00;22.00;;;;;24.89;36.19;100986.06;4953703;28;45838;-78
2023/06/17 02:04:21;;;;;;;;;26.67;22.33;;;;;24.83;36.79;100994.47;4953644;28;47670;-78
2023/06/17 02:06:46;;;;;;;;;25.33;23.33;;;;;24.75;36.51;100995.75;4953044;28;45483;-77
2023/06/17 02:09:13;;;;;;;;;21.00;19.33;;;;;24.70;37.17;100983.50;4950450;28;45593;-77
2023/06/17 02:11:38;;;;;;;;;23.00;22.33;;;;;24.72;36.99;100998.56;4936505;28;45610;-78
2023/06/17 02:14:04;;;;;;;;;22.67;20.00;;;;;24.68;37.17;100990.78;4935160;28;46772;-79
2023/06/17 02:16:33;;;;;;;;;19.67;19.67;;;;;24.71;37.03;100993.31;4937166;28;45627;-77
2023/06/17 02:18:58;;;;;;;;;29.00;22.00;;;;;24.73;37.01;100999.44;4944766;28;45472;-78
2023/06/17 02:21:24;;;;;;;;;24.67;22.00;;;;;24.64;37.10;100995.44;4959153;28;45679;-78
2023/06/17 02:23:50;;;;;;;;;22.33;21.67;;;;;24.50;37.38;100973.88;4959082;28;45274;-78
2023/06/17 02:26:18;;;;;;;;;21.67;21.67;;;;;24.48;37.50;100978.44;4959674;28;45262;-78
2023/06/17 02:28:44;;;;;;;;;24.00;22.33;;;;;24.52;37.72;100996.06;4959209;28;45519;-79
2023/06/17 02:31:10;;;;;;;;;23.00;20.67;;;;;24.51;37.94;100987.19;4960129;28;45508;-78
2023/06/17 02:33:36;;;;;;;;;23.00;22.33;;;;;24.54;37.56;100988.84;4954338;28;46101;-79
2023/06/17 02:36:02;;;;;;;;;23.67;23.67;;;;;24.62;37.97;100983.94;4940604;28;45555;-77
2023/06/17 02:38:28;;;;;;;;;25.67;22.33;;;;;24.69;37.53;100976.44;4952551;28;45341;-78
2023/06/17 02:40:54;;;;;;;;;24.67;21.67;;;;;24.64;37.69;100971.31;4957115;28;45493;-79
2023/06/17 02:43:20;;;;;;;;;27.67;23.67;;;;;24.49;37.91;100973.00;4957019;28;46708;-76
2023/06/17 02:45:46;;;;;;;;;20.00;20.00;;;;;24.34;38.18;100955.03;4957281;28;45881;-73
2023/06/17 02:48:11;;;;;;;;;24.67;22.00;;;;;24.49;37.59;100966.78;4958963;28;45651;-77
2023/06/17 02:50:37;;;;;;;;;28.00;26.00;;;;;24.50;38.04;100961.34;4961534;28;45242;-75
2023/06/17 02:53:04;;;;;;;;;23.33;23.33;;;;;24.53;38.14;100958.50;4960955;28;45468;-71
2023/06/17 02:55:30;;;;;;;;;25.00;21.00;;;;;24.36;37.94;100931.72;4958649;28;45499;-74
2023/06/17 02:57:56;;;;;;;;;22.33;22.00;;;;;24.43;38.14;100959.91;4957210;28;45763;-74
2023/06/17 03:00:21;;;;;;;;;27.67;21.67;;;;;24.26;38.32;100935.84;4953973;28;45553;-71
2023/06/17 03:02:48;;;;;;;;;23.67;22.00;;;;;24.33;38.36;100950.63;4937724;28;45536;-75
2023/06/17 03:05:14;;;;;;;;;24.67;21.33;;;;;24.20;38.71;100920.94;4944260;28;45730;-73
2023/06/17 03:07:40;;;;;;;;;24.33;20.67;;;;;24.00;38.68;100907.75;4957527;28;46191;-75
2023/06/17 03:10:07;;;;;;;;;28.00;23.00;;;;;24.22;39.04;100945.81;4955695;28;45503;-74
2023/06/17 03:12:33;;;;;;;;;24.33;23.67;;;;;24.03;39.02;100919.13;4954697;28;45670;-74
2023/06/17 03:14:58;;;;;;;;;22.33;22.00;;;;;24.18;39.03;100935.34;4956269;28;45635;-77
2023/06/17 03:17:24;;;;;;;;;24.33;22.67;;;;;24.18;39.12;100938.03;4958559;28;45440;-70
2023/06/17 03:19:50;;;;;;;;;20.33;17.00;;;;;24.20;38.77;100946.84;4957289;28;45443;-71
2023/06/17 03:22:16;;;;;;;;;25.67;24.33;;;;;24.14;39.12;100948.03;4955277;28;45439;-73
2023/06/17 03:24:42;;;;;;;;;8.33;8.33;;;;;24.18;39.45;100948.72;4956666;28;45535;-75
2023/06/17 03:27:08;;;;;;;;;24.33;22.67;;;;;24.20;39.23;100941.50;4956016;28;45460;-77
2023/06/17 03:29:36;;;;;;;;;22.33;21.00;;;;;24.33;39.10;100955.97;4960391;28;45506;-75
2023/06/17 03:32:02;;;;;;;;;24.00;22.67;;;;;24.23;39.30;100942.22;4961565;28;45362;-76
2023/06/17 03:34:28;;;;;;;;;23.33;22.00;;;;;24.23;39.47;100952.06;4960684;28;45325;-77
2023/06/17 03:36:56;;;;;;;;;28.67;24.00;;;;;24.19;39.61;100950.47;4960605;28;45289;-77
2023/06/17 03:39:22;;;;;;;;;25.00;22.67;;;;;24.16;39.77;100945.28;4960611;28;45469;-78
2023/06/17 03:41:48;;;;;;;;;26.33;23.00;;;;;24.22;39.17;100943.13;4961556;28;45383;-80
2023/06/17 03:44:14;;;;;;;;;22.00;19.67;;;;;24.20;39.40;100946.84;4955780;28;45395;-77
2023/06/17 03:46:39;;;;;;;;;25.00;22.00;;;;;24.03;39.54;100920.97;4956463;28;45371;-78
2023/06/17 03:49:05;;;;;;;;;27.00;22.67;;;;;24.06;39.60;100935.06;4954654;28;45338;-78
2023/06/17 03:51:31;;;;;;;;;24.67;24.67;;;;;24.11;39.54;100941.03;4958993;28;46088;-75
2023/06/17 03:53:56;;;;;;;;;20.33;18.00;;;;;24.02;39.93;100946.00;4955944;28;45186;-78
2023/06/17 03:56:22;;;;;;;;;24.67;22.33;;;;;24.04;40.15;100949.47;4941668;28;45490;-77
2023/06/17 03:58:47;;;;;;;;;22.33;21.33;;;;;23.77;40.27;100912.44;4941636;28;45459;-79
2023/06/17 04:01:14;;;;;;;;;20.67;18.00;;;;;23.98;40.13;100945.25;4941061;28;45683;-81
2023/06/17 04:03:40;;;;;;;;;22.67;21.33;;;;;23.98;40.40;100939.06;4940616;28;45547;-79
2023/06/17 04:06:06;;;;;;;;;20.33;19.33;;;;;23.98;39.92;100953.28;4952894;28;45412;-78
2023/06/17 04:08:33;;;;;;;;;25.67;23.67;;;;;23.92;40.14;100946.47;4956675;28;45460;-77
2023/06/17 04:10:59;;;;;;;;;20.33;19.67;;;;;23.94;40.13;100953.53;4970674;28;47027;-80
2023/06/17 04:13:25;;;;;;;;;22.00;22.00;;;;;23.83;40.15;100935.34;4953041;28;45313;-77
2023/06/17 04:15:50;;;;;;;;;29.33;24.33;;;;;23.93;40.09;100958.00;4937272;28;45404;-80
2023/06/17 04:18:16;;;;;;;;;25.67;22.00;;;;;23.70;40.54;100933.25;4938094;28;45341;-77
2023/06/17 04:20:44;;;;;;;;;19.00;18.33;;;;;23.79;40.39;100952.50;4938952;28;45452;-78
2023/06/17 04:23:10;;;;;;;;;21.33;21.00;;;;;23.70;40.22;100938.63;4968261;28;45375;-73
2023/06/17 04:25:36;;;;;;;;;23.00;22.67;;;;;23.60;40.57;100940.00;4953154;28;45479;-75
2023/06/17 04:28:07;;;;;;;;;22.00;22.00;;;;;23.50;40.67;100933.38;4948129;28;45555;-75
2023/06/17 04:30:33;;;;;;;;;23.33;22.67;;;;;23.56;40.97;100950.91;4970088;28;46830;-69
2023/06/17 04:33:00;;;;;;;;;22.67;22.67;;;;;23.50;41.04;100950.28;4937236;28;45313;-76
2023/06/17 04:35:27;;;;;;;;;25.33;21.00;;;;;23.49;40.85;100955.69;4934710;28;45423;-75
2023/06/17 04:37:56;;;;;;;;;21.67;20.00;;;;;23.44;40.75;100941.69;4934592;28;45499;-72
2023/06/17 04:40:23;;;;;;;;;27.67;25.33;;;;;23.41;41.00;100937.34;4934535;28;46336;-75
2023/06/17 04:42:49;;;;;;;;;23.33;23.33;;;;;23.41;41.19;100944.50;4950180;28;46037;-74
2023/06/17 04:45:17;;;;;;;;;20.00;19.00;;;;;23.54;41.29;100969.72;4935248;28;45556;-71
2023/06/17 04:47:44;;;;;;;;;21.67;20.67;;;;;23.58;41.11;100957.91;4954778;28;45519;-74
2023/06/17 04:50:10;;;;;;;;;24.00;21.67;;;;;23.60;40.93;100942.66;4939257;28;46557;-74
2023/06/17 04:52:36;;;;;;;;;17.67;17.00;;;;;23.60;40.59;100940.00;4946072;28;45570;-73
2023/06/17 04:55:02;;;;;;;;;23.33;19.00;;;;;23.70;40.71;100946.63;4958659;28;45321;-76
2023/06/17 04:57:27;;;;;;;;;23.00;21.67;;;;;23.71;40.99;100945.69;4958938;28;45497;-75
2023/06/17 04:59:53;;;;;;;;;25.00;21.33;;;;;23.71;40.93;100944.81;4954955;28;45489;-76
2023/06/17 05:02:19;;;;;;;;;21.33;20.67;;;;;23.48;41.18;100922.75;4955602;28;45583;-74
2023/06/17 05:04:44;;;;;;;;;25.67;23.33;;;;;23.63;40.97;100942.53;4958034;28;45451;-76
2023/06/17 05:07:10;;;;;;;;;23.00;20.33;;;;;23.55;40.94;100922.44;4954031;28;45602;-76
2023/06/17 05:09:35;;;;;;;;;23.67;23.00;;;;;23.58;41.11;100932.97;4940260;28;45424;-78
2023/06/17 05:12:01;;;;;;;;;22.00;21.67;;;;;23.53;40.98;100941.22;4940869;28;45549;-75
2023/06/17 05:14:26;;;;;;;;;25.67;25.67;;;;;23.50;41.16;100936.91;4938899;28;45444;-81
2023/06/17 05:16:52;;;;;;;;;26.67;20.33;;;;;23.61;41.14;100943.53;4937335;28;45685;-74
2023/06/17 05:19:19;;;;;;;;;26.33;24.00;;;;;23.62;41.14;100940.78;4967248;28;47432;-76
2023/06/17 05:21:44;;;;;;;;;26.33;24.00;;;;;23.59;40.82;100930.25;4947652;28;45480;-71
2023/06/17 05:24:13;;;;;;;;;24.00;24.00;;;;;23.57;40.91;100928.59;4953788;28;45424;-77
2023/06/17 05:26:42;;;;;;;;;30.33;22.67;;;;;23.70;40.91;100941.28;4955523;28;45625;-81
2023/06/17 05:29:08;;;;;;;;;27.67;24.00;;;;;23.26;40.99;100869.47;4969933;28;47982;-80
2023/06/17 05:31:34;;;;;;;;;26.33;20.33;;;;;23.34;41.31;100889.63;4955666;28;45436;-76
2023/06/17 05:34:00;;;;;;;;;25.00;22.00;;;;;23.65;40.76;100945.09;4960015;28;45329;-77
2023/06/17 05:36:26;;;;;;;;;24.00;19.67;;;;;23.67;40.99;100954.78;4959803;28;45495;-81
2023/06/17 05:38:52;;;;;;;;;26.00;24.00;;;;;23.82;40.53;100938.94;4960160;28;46130;-77
2023/06/17 05:41:17;;;;;;;;;23.67;21.00;;;;;23.75;40.51;100902.75;4956459;28;45383;-79
2023/06/17 05:43:43;;;;;;;;;20.67;20.33;;;;;23.82;40.60;100898.84;4938753;28;45413;-84
2023/06/17 05:46:09;;;;;;;;;24.67;24.00;;;;;23.89;40.36;100895.78;4936966;28;45322;-82
2023/06/17 05:48:35;;;;;;;;;26.33;24.67;;;;;23.88;40.22;100923.47;4947041;28;45879;-81
2023/06/17 05:51:00;;;;;;;;;18.00;18.00;;;;;24.05;39.88;100927.09;4955514;28;45496;-80
2023/06/17 05:53:28;;;;;;;;;20.33;20.33;;;;;24.18;40.21;100935.34;4956362;28;45388;-87
2023/06/17 05:55:54;;;;;;;;;23.33;23.00;;;;;23.96;40.07;100904.34;4960647;28;45159;-86
2023/06/17 05:58:20;;;;;;;;;24.67;22.67;;;;;23.99;39.98;100927.41;4957850;28;45556;-74
2023/06/17 06:00:46;;;;;;;;;23.00;21.00;;;;;23.93;40.08;100904.50;4954405;28;45899;-77
2023/06/17 06:03:14;;;;;;;;;21.33;21.33;;;;;24.11;39.72;100934.81;4945473;28;45540;-76
2023/06/17 06:05:43;;;;;;;;;21.67;20.67;;;;;23.93;40.04;100891.13;4944794;28;45511;-76
2023/06/17 06:08:09;;;;;;;;;20.67;19.67;;;;;24.24;39.59;100929.69;4954462;28;46242;-77
2023/06/17 06:10:34;;;;;;;;;28.00;22.67;;;;;23.78;40.14;100855.34;4956881;28;45495;-77
2023/06/17 06:13:00;;;;;;;;;23.00;23.00;;;;;24.39;39.65;100942.25;4960686;28;45354;-76
2023/06/17 06:15:30;;;;;;;;;24.33;21.33;;;;;24.57;39.30;100951.19;4962829;28;45484;-78
2023/06/17 06:17:56;;;;;;;;;19.33;16.67;;;;;24.54;39.44;100949.53;4954147;28;45396;-79
2023/06/17 06:20:21;;;;;;;;;20.67;20.67;;;;;24.36;38.90;100894.25;4937512;28;45897;-80
2023/06/17 06:22:47;;;;;;;;;22.33;20.33;;;;;24.16;39.24;100862.34;4967046;28;45475;-79
2023/06/17 06:25:12;;;;;;;;;23.67;22.00;;;;;24.45;38.89;100923.22;4953067;28;45629;-82
2023/06/17 06:27:38;;;;;;;;;20.00;19.33;;;;;23.97;38.74;100843.72;4939209;28;46732;-82
2023/06/17 06:30:05;;;;;;;;;25.00;21.67;;;;;24.66;38.65;100956.03;4942281;28;45492;-78
2023/06/17 06:32:30;;;;;;;;;22.00;19.67;;;;;24.64;38.81;100935.66;4971112;28;45796;-76
2023/06/17 06:35:02;;;;;;;;;22.67;19.00;;;;;24.74;38.88;100952.94;4939015;28;45731;-79
2023/06/17 06:37:27;;;;;;;;;22.33;19.67;;;;;24.75;38.85;100934.13;4940102;28;45445;-76
2023/06/17 06:39:53;;;;;;;;;23.33;18.00;;;;;24.79;38.34;100939.31;4941704;28;45649;-72
2023/06/17 06:42:18;;;;;;;;;19.33;19.33;;;;;24.85;38.28;100937.16;4941977;28;45453;-75
2023/06/17 06:44:44;;;;;;;;;23.00;20.33;;;;;25.05;38.56;100953.97;4953770;28;45431;-73
2023/06/17 06:47:13;;;;;;;;;19.33;19.33;;;;;25.13;38.41;100949.06;4957201;28;47892;-73
2023/06/17 06:49:39;;;;;;;;;19.33;17.67;;;;;25.20;38.65;100945.13;4938339;28;45406;-78
2023/06/17 06:52:05;;;;;;;;;20.67;19.33;;;;;25.23;37.84;100928.00;4939746;28;45571;-77
2023/06/17 06:54:31;;;;;;;;;19.67;17.33;;;;;25.50;38.14;100968.47;4940403;28;45523;-77
2023/06/17 06:56:57;;;;;;;;;20.00;18.67;;;;;25.63;38.21;100966.81;4955764;28;47793;-76
2023/06/17 06:59:22;;;;;;;;;20.67;17.67;;;;;25.69;37.62;100974.50;4958280;28;45998;-78
2023/06/17 07:01:48;;;;;;;;;22.00;19.33;;;;;25.14;37.07;100873.06;4958838;28;45436;-76
2023/06/17 07:04:14;;;;;;;;;20.67;20.67;;;;;25.76;37.06;100966.97;4953151;28;45662;-77
2023/06/17 07:06:40;;;;;;;;;22.33;19.00;;;;;25.65;37.19;100947.94;4960836;28;46785;-77
2023/06/17 07:09:06;;;;;;;;;23.00;19.00;;;;;25.71;37.36;100951.13;4961048;28;45435;-76
2023/06/17 07:11:32;;;;;;;;;19.67;18.00;;;;;25.67;37.33;100943.34;4958534;28;45476;-77
2023/06/17 07:13:57;;;;;;;;;24.33;20.00;;;;;25.27;37.29;100887.53;4955847;28;45450;-77
2023/06/17 07:16:23;;;;;;;;;21.00;19.33;;;;;25.31;36.86;100902.47;4955065;28;45396;-76
2023/06/17 07:18:48;;;;;;;;;22.33;20.00;;;;;25.44;37.35;100923.22;4956325;28;45477;-77
2023/06/17 07:21:14;;;;;;;;;23.33;19.67;;;;;25.37;37.15;100912.84;4943472;28;45455;-78
2023/06/17 07:23:39;;;;;;;;;21.00;18.67;;;;;25.66;36.80;100958.59;4940357;28;45533;-78
2023/06/17 07:26:06;;;;;;;;;21.00;20.00;;;;;25.36;36.62;100902.22;4940902;28;45983;-78
2023/06/17 07:28:32;;;;;;;;;19.00;19.00;;;;;25.69;37.15;100971.81;4940193;28;45560;-81
2023/06/17 07:30:58;;;;;;;;;18.00;17.67;;;;;25.24;37.00;100901.09;4939871;28;45772;-79
2023/06/17 07:33:25;;;;;;;;;19.33;19.33;;;;;25.58;37.38;100937.56;4938049;28;45492;-79
2023/06/17 07:35:50;;;;;;;;;21.67;18.00;;;;;25.62;37.32;100948.97;4940965;28;47100;-79
2023/06/17 07:38:16;;;;;;;;;17.50;16.50;;;;;25.66;36.99;100950.53;4958036;28;45380;-80
2023/06/17 07:40:42;;;;;;;;;21.67;18.67;;;;;25.77;37.45;100974.94;4958669;28;45622;-78
2023/06/17 07:43:09;;;;;;;;;23.33;20.67;;;;;25.79;37.88;100975.72;4959890;28;45360;-79
2023/06/17 07:45:35;;;;;;;;;21.67;19.33;;;;;25.32;37.63;100904.22;4957725;28;46964;-79
2023/06/17 07:48:00;;;;;;;;;20.67;20.33;;;;;25.87;37.61;100972.63;4958090;28;45528;-79
2023/06/17 07:50:26;;;;;;;;;21.00;20.00;;;;;25.77;37.45;100948.09;4960261;28;45385;-78
2023/06/17 07:52:52;;;;;;;;;22.67;20.00;;;;;25.96;37.82;100979.22;4960975;28;45470;-78
2023/06/17 07:55:18;;;;;;;;;14.33;13.67;;;;;25.61;37.73;100928.50;4959423;28;45655;-76
2023/06/17 07:57:44;;;;;;;;;22.00;18.33;;;;;25.82;38.42;100966.63;4957584;28;45433;-79
2023/06/17 08:00:13;;;;;;;;;21.67;20.33;;;;;25.84;37.83;100955.78;4957450;28;45665;-81
2023/06/17 08:02:41;;;;;;;;;23.67;22.67;;;;;25.52;38.07;100888.78;4943797;28;45420;-78
2023/06/17 08:05:08;;;;;;;;;25.67;23.67;;;;;25.99;37.60;100977.25;4952070;28;46083;-81
2023/06/17 08:07:34;;;;;;;;;21.00;21.00;;;;;26.01;37.92;100975.34;4962963;28;45392;-85
2023/06/17 08:10:00;;;;;;;;;19.67;19.67;;;;;25.99;38.22;100974.56;4958822;28;45469;-78
2023/06/17 08:12:25;;;;;;;;;28.33;21.67;;;;;26.13;37.85;100971.06;4957322;28;45675;-84
2023/06/17 08:14:52;;;;;;;;;19.67;18.00;;;;;25.94;37.76;100924.81;4957099;28;45624;-81
2023/06/17 08:17:18;;;;;;;;;25.67;22.67;;;;;25.78;37.75;100908.72;4972270;28;45414;-84
2023/06/17 08:19:43;;;;;;;;;23.67;22.00;;;;;26.14;38.30;100955.81;4956863;28;45416;-84
2023/06/17 08:22:10;;;;;;;;;25.00;21.00;;;;;26.36;37.94;100971.50;4953525;28;45464;-80
2023/06/17 08:24:36;;;;;;;;;24.00;22.00;;;;;26.34;37.51;100949.25;4956208;28;45436;-82
2023/06/17 08:27:02;;;;;;;;;23.00;22.33;;;;;26.46;37.47;100964.63;4970457;28;45570;-82
2023/06/17 08:29:28;;;;;;;;;20.00;18.67;;;;;26.52;37.28;100952.63;4956437;28;45471;-82
2023/06/17 08:31:54;;;;;;;;;23.67;20.00;;;;;26.62;37.48;100964.56;4971396;28;45587;-86
2023/06/17 08:34:21;;;;;;;;;21.00;19.67;;;;;26.20;37.58;100861.50;4955364;28;46839;-81
2023/06/17 08:36:52;;;;;;;;;20.33;20.33;;;;;26.61;37.14;100918.03;4959185;28;45304;-81
2023/06/17 08:39:18;;;;;;;;;20.33;20.33;;;;;26.99;37.15;100946.16;4955968;28;45535;-83
2023/06/17 08:41:45;;;;;;;;;20.33;18.33;;;;;27.18;36.78;100929.72;4955834;28;45499;-83
2023/06/17 08:44:12;;;;;;;;;20.67;20.67;;;;;27.31;36.03;100933.34;4954214;28;46286;-83
2023/06/17 08:46:39;;;;;;;;;19.67;18.00;;;;;27.26;35.73;100938.16;4953720;28;45407;-83
2023/06/17 08:49:07;;;;;;;;;22.00;20.00;;;;;27.27;36.08;100904.94;4954309;28;46276;-77
2023/06/17 08:51:34;;;;;;;;;24.67;21.67;;;;;27.62;35.56;100934.03;4955869;28;45502;-82
2023/06/17 08:54:01;;;;;;;;;24.00;23.00;;;;;27.51;35.06;100896.22;4947379;28;46526;-79
2023/06/17 08:56:27;;;;;;;;;22.67;20.33;;;;;27.83;35.28;100937.16;4950570;28;45556;-84
2023/06/17 08:58:55;;;;;;;;;24.67;22.67;;;;;27.77;34.65;100911.47;4969663;28;45842;-85
2023/06/17 09:01:22;;;;;;;;;22.00;20.33;;;;;27.77;34.81;100905.25;4958656;28;46398;-82
2023/06/17 09:03:51;;;;;;;;;21.33;20.33;;;;;27.79;34.13;100885.34;4964839;28;45510;-82
2023/06/17 09:06:25;;;;;;;;;22.33;19.33;;;;;28.11;34.39;100926.22;4963214;28;45354;-85
2023/06/17 09:08:52;;;;;;;;;20.33;20.33;;;;;28.20;34.27;100919.34;4959975;28;45345;-85
2023/06/17 09:11:38;;;;;;;;;22.33;22.33;;;;;28.04;34.22;100876.47;4958611;28;45293;-81
2023/06/17 09:14:04;;;;;;;;;21.33;20.33;;;;;27.80;34.25;100835.91;4965226;28;45467;-84
2023/06/17 09:16:34;;;;;;;;;20.67;18.67;;;;;27.73;34.17;100831.91;4976248;28;45273;-79
2023/06/17 09:19:03;;;;;;;;;22.67;19.33;;;;;28.13;34.12;100874.97;4976506;28;45426;-79
2023/06/17 09:21:30;;;;;;;;;22.33;21.33;;;;;28.63;33.85;100927.16;4977114;28;45323;-84
2023/06/17 09:24:03;;;;;;;;;22.00;21.00;;;;;28.48;33.79;100899.47;4980040;28;46509;-82
2023/06/17 09:26:31;;;;;;;;;25.00;20.33;;;;;28.79;33.45;100923.38;4965559;28;45301;-82
2023/06/17 09:29:04;;;;;;;;;23.33;21.33;;;;;28.31;33.13;100835.13;4964392;28;45318;-83
2023/06/17 09:31:31;;;;;;;;;22.67;21.33;;;;;28.67;32.93;100896.31;4963198;28;45505;-79
2023/06/17 09:33:57;;;;;;;;;24.00;21.67;;;;;28.65;32.56;100892.88;4944835;28;45473;-83
2023/06/17 09:36:25;;;;;;;;;22.67;21.67;;;;;28.46;33.37;100852.06;4942446;28;45554;-82
2023/06/17 09:38:51;;;;;;;;;24.00;22.00;;;;;28.82;33.19;100907.81;4938492;28;45381;-84
2023/06/17 09:41:20;;;;;;;;;24.67;23.67;;;;;28.95;33.20;100913.22;4941314;28;45373;-83
2023/06/17 09:43:53;;;;;;;;;26.33;23.33;;;;;28.86;32.84;100895.84;4941413;28;47977;-85
2023/06/17 09:46:29;;;;;;;;;27.00;24.33;;;;;28.71;33.32;100870.88;4944441;28;44776;-82
2023/06/17 09:48:59;;;;;;;;;25.33;23.33;;;;;29.15;32.85;100909.94;4948652;28;45226;-86
2023/06/17 09:51:25;;;;;;;;;22.00;22.00;;;;;29.12;32.62;100891.28;4978940;28;45414;-81
2023/06/17 09:53:52;;;;;;;;;28.33;25.00;;;;;29.07;33.12;100866.50;4967240;28;45400;-81
2023/06/17 09:56:19;;;;;;;;;23.00;22.00;;;;;29.30;33.36;100905.25;4968304;28;45674;-80
2023/06/17 09:58:46;;;;;;;;;23.67;22.33;;;;;29.23;33.28;100881.53;4976772;28;45425;-80
2023/06/17 10:01:13;;;;;;;;;26.00;23.00;;;;;28.89;32.55;100814.75;4963669;28;45397;-81
2023/06/17 10:03:42;;;;;;;;;26.67;22.67;;;;;29.58;32.70;100905.88;4966741;28;45668;-79
2023/06/17 10:06:11;;;;;;;;;25.33;25.33;;;;;29.63;32.43;100910.94;4953294;28;45530;-82
2023/06/17 10:08:39;;;;;;;;;26.00;24.33;;;;;29.55;32.48;100893.47;4972574;28;45380;-81
2023/06/17 10:11:05;;;;;;;;;25.00;24.00;;;;;29.46;32.80;100869.03;4943955;28;45462;-84
2023/06/17 10:13:39;;;;;;;;;26.33;24.33;;;;;29.73;32.47;100906.59;4964583;28;46363;-80
2023/06/17 10:16:10;;;;;;;;;26.33;25.33;;;;;29.29;32.81;100809.13;4972753;28;45253;-79
2023/06/17 10:18:38;;;;;;;;;24.33;24.33;;;;;29.87;32.69;100892.88;4977804;28;45499;-79
2023/06/17 10:21:08;;;;;;;;;25.67;25.00;;;;;29.58;32.69;100860.00;4980638;28;44805;-80
2023/06/17 10:23:36;;;;;;;;;28.33;25.33;;;;;29.62;32.69;100849.84;4975164;28;45364;-77
2023/06/17 10:26:10;;;;;;;;;25.33;23.67;;;;;29.38;32.61;100821.91;4989261;28;45430;-76
2023/06/17 10:28:46;;;;;;;;;27.33;25.33;;;;;29.74;32.41;100868.69;4968253;28;45400;-81
2023/06/17 10:31:25;;;;;;;;;23.67;23.33;;;;;29.79;32.61;100865.63;4980461;28;45427;-78
2023/06/17 10:33:54;;;;;;;;;28.67;27.00;;;;;29.98;32.27;100859.66;4961492;28;47166;-80
2023/06/17 10:36:22;;;;;;;;;23.33;23.00;;;;;30.27;31.90;100889.81;4967943;28;45542;-82
2023/06/17 10:38:57;;;;;;;;;24.33;21.67;;;;;30.04;32.48;100813.28;4968676;28;45476;-82
2023/06/17 10:41:45;;;;;;;;;24.00;23.00;;;;;30.55;31.59;100876.84;4967591;28;45408;-81
2023/06/17 10:44:34;;;;;;;;;20.00;20.00;;;;;30.68;31.67;100849.66;4965443;28;45435;-79
2023/06/17 10:47:02;;;;;;;;;24.33;24.33;;;;;30.89;30.96;100874.13;4948539;28;45885;-79
2023/06/17 10:49:41;;;;;;;;;23.67;23.67;;;;;30.58;31.75;100811.72;4943843;28;45293;-81
2023/06/17 10:52:12;;;;;;;;;22.33;22.00;;;;;31.08;31.29;100874.34;4950697;28;45610;-82
2023/06/17 10:54:53;;;;;;;;;29.67;27.33;;;;;31.23;30.65;100854.16;4946309;28;45471;-82
2023/06/17 10:57:35;;;;;;;;;25.67;25.67;;;;;31.35;31.10;100854.97;4946568;28;45448;-80
2023/06/17 11:00:08;;;;;;;;;27.33;24.67;;;;;31.45;30.97;100855.94;4944105;28;45436;-80
2023/06/17 11:02:36;;;;;;;;;27.33;25.67;;;;;31.51;30.53;100851.00;4953833;28;45626;-82
2023/06/17 11:05:02;;;;;;;;;27.67;27.67;;;;;31.35;30.64;100821.66;4955337;28;46317;-78
2023/06/17 11:07:27;;;;;;;;;28.33;26.33;;;;;31.55;30.29;100842.50;4963930;28;45344;-83
2023/06/17 11:09:53;;;;;;;;;27.67;25.67;;;;;31.47;30.58;100837.72;4955220;28;45459;-82